sensor_id;sensor_type;location;lat;lon;timestamp;P1;durP1;ratioP1;P2;durP2;ratioP2
56667;SDS011;42542;48.360;10.958;2023-05-10T00:01:20;5.38;;;2.03;;
56667;SDS011;42542;48.360;10.958;2023-05-10T00:04:22;5.93;;;2.37;;
56667;SDS011;42542;48.360;10.958;2023-05-10T00:07:28;6.75;;;2.08;;
56667;SDS011;42542;48.360;10.958;2023-05-10T00:10:31;6.30;;;2.30;;
56667;SDS011;42542;48.360;10.958;2023-05-10T00:13:32;6.68;;;2.10;;
56667;SDS011;42542;48.360;10.958;2023-05-10T00:16:34;6.03;;;2.38;;
56667;SDS011;42542;48.360;10.958;2023-05-10T00:19:36;5.80;;;2.30;;
56667;SDS011;42542;48.360;10.958;2023-05-10T00:22:38;5.75;;;2.30;;
56667;SDS011;42542;48.360;10.958;2023-05-10T00:25:41;6.80;;;2.30;;
56667;SDS011;42542;48.360;10.958;2023-05-10T00:28:43;6.05;;;2.10;;
56667;SDS011;42542;48.360;10.958;2023-05-10T00:31:45;6.03;;;2.40;;
56667;SDS011;42542;48.360;10.958;2023-05-10T00:34:47;6.55;;;2.13;;
56667;SDS011;42542;48.360;10.958;2023-05-10T00:37:49;5.70;;;2.15;;
56667;SDS011;42542;48.360;10.958;2023-05-10T00:40:51;5.78;;;2.17;;
56667;SDS011;42542;48.360;10.958;2023-05-10T00:44:00;6.13;;;1.98;;
56667;SDS011;42542;48.360;10.958;2023-05-10T00:47:03;5.33;;;1.87;;
56667;SDS011;42542;48.360;10.958;2023-05-10T00:50:06;5.18;;;1.83;;
56667;SDS011;42542;48.360;10.958;2023-05-10T00:53:08;5.05;;;1.92;;
56667;SDS011;42542;48.360;10.958;2023-05-10T00:56:10;5.78;;;2.20;;
56667;SDS011;42542;48.360;10.958;2023-05-10T00:59:13;6.57;;;2.28;;
56667;SDS011;42542;48.360;10.958;2023-05-10T01:02:18;5.65;;;1.80;;
56667;SDS011;42542;48.360;10.958;2023-05-10T01:05:19;5.53;;;1.80;;
56667;SDS011;42542;48.360;10.958;2023-05-10T01:08:21;5.25;;;1.80;;
56667;SDS011;42542;48.360;10.958;2023-05-10T01:11:24;5.35;;;1.77;;
56667;SDS011;42542;48.360;10.958;2023-05-10T01:14:26;6.95;;;1.80;;
56667;SDS011;42542;48.360;10.958;2023-05-10T01:17:30;4.80;;;1.50;;
56667;SDS011;42542;48.360;10.958;2023-05-10T01:20:35;5.50;;;1.60;;
56667;SDS011;42542;48.360;10.958;2023-05-10T01:24:03;5.35;;;1.67;;
56667;SDS011;42542;48.360;10.958;2023-05-10T01:30:41;6.10;;;1.60;;
56667;SDS011;42542;48.360;10.958;2023-05-10T01:33:52;4.50;;;1.40;;
56667;SDS011;42542;48.360;10.958;2023-05-10T01:37:11;4.27;;;1.40;;
56667;SDS011;42542;48.360;10.958;2023-05-10T01:40:23;4.20;;;1.40;;
56667;SDS011;42542;48.360;10.958;2023-05-10T01:43:33;4.35;;;1.30;;
56667;SDS011;42542;48.360;10.958;2023-05-10T01:47:01;4.47;;;1.40;;
56667;SDS011;42542;48.360;10.958;2023-05-10T01:50:10;4.43;;;1.40;;
56667;SDS011;42542;48.360;10.958;2023-05-10T01:53:19;4.30;;;1.30;;
56667;SDS011;42542;48.360;10.958;2023-05-10T01:56:24;4.63;;;1.40;;
56667;SDS011;42542;48.360;10.958;2023-05-10T01:59:30;4.30;;;1.40;;
56667;SDS011;42542;48.360;10.958;2023-05-10T02:02:39;4.80;;;1.20;;
56667;SDS011;42542;48.360;10.958;2023-05-10T02:05:44;4.28;;;1.30;;
56667;SDS011;42542;48.360;10.958;2023-05-10T02:08:49;4.50;;;1.30;;
56667;SDS011;42542;48.360;10.958;2023-05-10T02:11:52;3.93;;;1.20;;
56667;SDS011;42542;48.360;10.958;2023-05-10T02:14:58;4.53;;;1.40;;
56667;SDS011;42542;48.360;10.958;2023-05-10T02:18:03;4.85;;;1.40;;
56667;SDS011;42542;48.360;10.958;2023-05-10T02:21:07;4.07;;;1.30;;
56667;SDS011;42542;48.360;10.958;2023-05-10T02:24:12;3.97;;;1.37;;
56667;SDS011;42542;48.360;10.958;2023-05-10T02:27:17;3.67;;;1.20;;
56667;SDS011;42542;48.360;10.958;2023-05-10T02:30:20;4.15;;;1.20;;
56667;SDS011;42542;48.360;10.958;2023-05-10T02:33:24;3.95;;;1.10;;
56667;SDS011;42542;48.360;10.958;2023-05-10T02:36:27;3.80;;;1.13;;
56667;SDS011;42542;48.360;10.958;2023-05-10T02:39:31;5.03;;;1.20;;
56667;SDS011;42542;48.360;10.958;2023-05-10T02:42:35;3.38;;;1.00;;
56667;SDS011;42542;48.360;10.958;2023-05-10T02:45:40;3.70;;;1.15;;
56667;SDS011;42542;48.360;10.958;2023-05-10T02:48:43;3.57;;;1.00;;
56667;SDS011;42542;48.360;10.958;2023-05-10T02:51:47;3.05;;;0.98;;
56667;SDS011;42542;48.360;10.958;2023-05-10T02:54:54;3.08;;;0.90;;
56667;SDS011;42542;48.360;10.958;2023-05-10T02:57:59;3.75;;;1.08;;
56667;SDS011;42542;48.360;10.958;2023-05-10T03:01:02;3.07;;;0.80;;
56667;SDS011;42542;48.360;10.958;2023-05-10T03:04:04;3.03;;;0.90;;
56667;SDS011;42542;48.360;10.958;2023-05-10T03:07:07;3.25;;;1.00;;
56667;SDS011;42542;48.360;10.958;2023-05-10T03:10:11;3.40;;;0.90;;
56667;SDS011;42542;48.360;10.958;2023-05-10T03:16:52;3.17;;;0.90;;
56667;SDS011;42542;48.360;10.958;2023-05-10T03:20:04;3.33;;;0.90;;
56667;SDS011;42542;48.360;10.958;2023-05-10T03:23:13;3.15;;;1.00;;
56667;SDS011;42542;48.360;10.958;2023-05-10T03:26:19;2.10;;;0.70;;
56667;SDS011;42542;48.360;10.958;2023-05-10T03:29:33;3.13;;;0.73;;
56667;SDS011;42542;48.360;10.958;2023-05-10T03:32:35;3.08;;;0.80;;
56667;SDS011;42542;48.360;10.958;2023-05-10T03:35:38;3.53;;;0.80;;
56667;SDS011;42542;48.360;10.958;2023-05-10T03:38:41;2.60;;;0.70;;
56667;SDS011;42542;48.360;10.958;2023-05-10T03:41:44;2.78;;;0.70;;
56667;SDS011;42542;48.360;10.958;2023-05-10T03:44:46;2.20;;;0.60;;
56667;SDS011;42542;48.360;10.958;2023-05-10T03:47:50;2.00;;;0.70;;
56667;SDS011;42542;48.360;10.958;2023-05-10T03:50:52;1.90;;;0.60;;
56667;SDS011;42542;48.360;10.958;2023-05-10T03:53:55;2.35;;;0.70;;
56667;SDS011;42542;48.360;10.958;2023-05-10T03:56:57;3.25;;;0.60;;
56667;SDS011;42542;48.360;10.958;2023-05-10T04:00:00;1.47;;;0.50;;
56667;SDS011;42542;48.360;10.958;2023-05-10T04:03:14;1.88;;;0.60;;
56667;SDS011;42542;48.360;10.958;2023-05-10T04:06:17;1.75;;;0.50;;
56667;SDS011;42542;48.360;10.958;2023-05-10T04:09:19;2.25;;;0.63;;
56667;SDS011;42542;48.360;10.958;2023-05-10T04:12:21;1.77;;;0.50;;
56667;SDS011;42542;48.360;10.958;2023-05-10T04:15:24;2.03;;;0.70;;
56667;SDS011;42542;48.360;10.958;2023-05-10T04:18:25;2.10;;;0.60;;
56667;SDS011;42542;48.360;10.958;2023-05-10T04:21:27;2.30;;;0.60;;
56667;SDS011;42542;48.360;10.958;2023-05-10T04:24:28;1.83;;;0.55;;
56667;SDS011;42542;48.360;10.958;2023-05-10T04:27:31;4.22;;;0.70;;
56667;SDS011;42542;48.360;10.958;2023-05-10T04:30:33;1.85;;;0.50;;
56667;SDS011;42542;48.360;10.958;2023-05-10T04:33:36;1.90;;;0.60;;
56667;SDS011;42542;48.360;10.958;2023-05-10T04:36:38;2.00;;;0.60;;
56667;SDS011;42542;48.360;10.958;2023-05-10T04:39:40;2.00;;;0.60;;
56667;SDS011;42542;48.360;10.958;2023-05-10T04:42:43;2.10;;;0.60;;
56667;SDS011;42542;48.360;10.958;2023-05-10T04:45:45;2.57;;;0.70;;
56667;SDS011;42542;48.360;10.958;2023-05-10T04:48:46;2.15;;;0.65;;
56667;SDS011;42542;48.360;10.958;2023-05-10T04:51:48;2.70;;;0.70;;
56667;SDS011;42542;48.360;10.958;2023-05-10T04:54:50;2.03;;;0.60;;
56667;SDS011;42542;48.360;10.958;2023-05-10T04:57:53;4.47;;;0.80;;
56667;SDS011;42542;48.360;10.958;2023-05-10T05:01:04;2.92;;;0.60;;
56667;SDS011;42542;48.360;10.958;2023-05-10T05:04:08;2.42;;;0.68;;
56667;SDS011;42542;48.360;10.958;2023-05-10T05:07:09;1.75;;;0.60;;
56667;SDS011;42542;48.360;10.958;2023-05-10T05:10:12;2.67;;;0.70;;
56667;SDS011;42542;48.360;10.958;2023-05-10T05:13:14;2.10;;;0.60;;
56667;SDS011;42542;48.360;10.958;2023-05-10T05:16:16;3.08;;;0.90;;
56667;SDS011;42542;48.360;10.958;2023-05-10T05:19:18;2.53;;;0.63;;
56667;SDS011;42542;48.360;10.958;2023-05-10T05:22:20;2.87;;;0.70;;
56667;SDS011;42542;48.360;10.958;2023-05-10T05:25:28;2.92;;;0.68;;
56667;SDS011;42542;48.360;10.958;2023-05-10T05:28:30;2.45;;;0.70;;
56667;SDS011;42542;48.360;10.958;2023-05-10T05:31:35;2.60;;;0.52;;
56667;SDS011;42542;48.360;10.958;2023-05-10T05:34:37;3.35;;;0.70;;
56667;SDS011;42542;48.360;10.958;2023-05-10T05:37:39;2.97;;;0.88;;
56667;SDS011;42542;48.360;10.958;2023-05-10T05:40:41;3.80;;;0.80;;
56667;SDS011;42542;48.360;10.958;2023-05-10T05:43:43;3.20;;;0.80;;
56667;SDS011;42542;48.360;10.958;2023-05-10T05:46:45;3.73;;;0.80;;
56667;SDS011;42542;48.360;10.958;2023-05-10T05:49:46;3.17;;;0.88;;
56667;SDS011;42542;48.360;10.958;2023-05-10T05:52:48;3.25;;;0.90;;
56667;SDS011;42542;48.360;10.958;2023-05-10T05:55:51;3.30;;;0.80;;
56667;SDS011;42542;48.360;10.958;2023-05-10T05:58:57;3.60;;;0.90;;
56667;SDS011;42542;48.360;10.958;2023-05-10T06:01:58;3.65;;;1.00;;
56667;SDS011;42542;48.360;10.958;2023-05-10T06:05:00;6.47;;;1.20;;
56667;SDS011;42542;48.360;10.958;2023-05-10T06:08:02;3.83;;;0.90;;
56667;SDS011;42542;48.360;10.958;2023-05-10T06:11:05;3.88;;;1.10;;
56667;SDS011;42542;48.360;10.958;2023-05-10T06:14:06;7.50;;;1.30;;
56667;SDS011;42542;48.360;10.958;2023-05-10T06:17:09;4.00;;;1.10;;
56667;SDS011;42542;48.360;10.958;2023-05-10T06:20:11;4.00;;;1.23;;
56667;SDS011;42542;48.360;10.958;2023-05-10T06:23:14;4.50;;;1.30;;
56667;SDS011;42542;48.360;10.958;2023-05-10T06:26:15;4.22;;;1.30;;
56667;SDS011;42542;48.360;10.958;2023-05-10T06:29:18;5.93;;;1.30;;
56667;SDS011;42542;48.360;10.958;2023-05-10T06:32:19;3.58;;;1.20;;
56667;SDS011;42542;48.360;10.958;2023-05-10T06:35:21;3.65;;;1.13;;
56667;SDS011;42542;48.360;10.958;2023-05-10T06:38:23;4.00;;;1.15;;
56667;SDS011;42542;48.360;10.958;2023-05-10T06:41:25;4.50;;;1.13;;
56667;SDS011;42542;48.360;10.958;2023-05-10T06:44:26;4.30;;;1.27;;
56667;SDS011;42542;48.360;10.958;2023-05-10T06:47:28;3.58;;;1.10;;
56667;SDS011;42542;48.360;10.958;2023-05-10T06:50:30;4.77;;;1.10;;
56667;SDS011;42542;48.360;10.958;2023-05-10T06:53:32;4.50;;;1.20;;
56667;SDS011;42542;48.360;10.958;2023-05-10T06:56:34;5.30;;;1.40;;
56667;SDS011;42542;48.360;10.958;2023-05-10T06:59:36;5.15;;;1.35;;
56667;SDS011;42542;48.360;10.958;2023-05-10T07:02:37;4.33;;;1.20;;
56667;SDS011;42542;48.360;10.958;2023-05-10T07:05:40;3.53;;;0.90;;
56667;SDS011;42542;48.360;10.958;2023-05-10T07:08:41;4.05;;;1.10;;
56667;SDS011;42542;48.360;10.958;2023-05-10T07:11:43;3.33;;;1.00;;
56667;SDS011;42542;48.360;10.958;2023-05-10T07:14:45;4.38;;;1.10;;
56667;SDS011;42542;48.360;10.958;2023-05-10T07:17:47;3.22;;;0.82;;
56667;SDS011;42542;48.360;10.958;2023-05-10T07:20:49;3.10;;;0.88;;
56667;SDS011;42542;48.360;10.958;2023-05-10T07:23:51;3.73;;;1.10;;
56667;SDS011;42542;48.360;10.958;2023-05-10T07:26:52;5.80;;;0.90;;
56667;SDS011;42542;48.360;10.958;2023-05-10T07:29:54;5.18;;;1.00;;
56667;SDS011;42542;48.360;10.958;2023-05-10T07:32:57;4.05;;;1.10;;
56667;SDS011;42542;48.360;10.958;2023-05-10T07:36:00;4.30;;;1.00;;
56667;SDS011;42542;48.360;10.958;2023-05-10T07:39:03;2.70;;;0.90;;
56667;SDS011;42542;48.360;10.958;2023-05-10T07:42:04;4.10;;;1.02;;
56667;SDS011;42542;48.360;10.958;2023-05-10T07:45:07;3.50;;;1.00;;
56667;SDS011;42542;48.360;10.958;2023-05-10T07:48:10;3.60;;;1.10;;
56667;SDS011;42542;48.360;10.958;2023-05-10T07:51:12;3.03;;;0.90;;
56667;SDS011;42542;48.360;10.958;2023-05-10T07:54:14;3.40;;;1.02;;
56667;SDS011;42542;48.360;10.958;2023-05-10T07:57:15;3.17;;;0.90;;
56667;SDS011;42542;48.360;10.958;2023-05-10T08:00:19;4.10;;;0.90;;
56667;SDS011;42542;48.360;10.958;2023-05-10T08:03:21;4.00;;;1.00;;
56667;SDS011;42542;48.360;10.958;2023-05-10T08:06:24;3.88;;;1.10;;
56667;SDS011;42542;48.360;10.958;2023-05-10T08:09:29;4.73;;;1.00;;
56667;SDS011;42542;48.360;10.958;2023-05-10T08:12:30;4.18;;;1.08;;
56667;SDS011;42542;48.360;10.958;2023-05-10T08:15:33;4.43;;;0.95;;
56667;SDS011;42542;48.360;10.958;2023-05-10T08:18:34;3.95;;;1.00;;
56667;SDS011;42542;48.360;10.958;2023-05-10T08:21:36;3.80;;;1.00;;
56667;SDS011;42542;48.360;10.958;2023-05-10T08:24:38;4.32;;;1.10;;
56667;SDS011;42542;48.360;10.958;2023-05-10T08:27:40;2.85;;;0.88;;
56667;SDS011;42542;48.360;10.958;2023-05-10T08:30:42;3.50;;;0.90;;
56667;SDS011;42542;48.360;10.958;2023-05-10T08:33:44;3.60;;;1.00;;
56667;SDS011;42542;48.360;10.958;2023-05-10T08:36:46;3.60;;;1.00;;
56667;SDS011;42542;48.360;10.958;2023-05-10T08:39:48;3.58;;;1.10;;
56667;SDS011;42542;48.360;10.958;2023-05-10T08:42:51;3.50;;;1.00;;
56667;SDS011;42542;48.360;10.958;2023-05-10T08:46:00;3.90;;;0.97;;
56667;SDS011;42542;48.360;10.958;2023-05-10T08:49:06;3.22;;;1.02;;
56667;SDS011;42542;48.360;10.958;2023-05-10T08:52:11;4.13;;;1.20;;
56667;SDS011;42542;48.360;10.958;2023-05-10T08:55:16;5.57;;;1.15;;
56667;SDS011;42542;48.360;10.958;2023-05-10T08:58:19;4.28;;;1.00;;
56667;SDS011;42542;48.360;10.958;2023-05-10T09:01:23;3.58;;;1.08;;
56667;SDS011;42542;48.360;10.958;2023-05-10T09:04:27;3.80;;;1.10;;
56667;SDS011;42542;48.360;10.958;2023-05-10T09:07:31;5.88;;;1.23;;
56667;SDS011;42542;48.360;10.958;2023-05-10T09:10:36;5.13;;;1.10;;
56667;SDS011;42542;48.360;10.958;2023-05-10T09:13:40;3.97;;;1.20;;
56667;SDS011;42542;48.360;10.958;2023-05-10T09:16:43;3.47;;;1.00;;
56667;SDS011;42542;48.360;10.958;2023-05-10T09:19:46;4.70;;;1.10;;
56667;SDS011;42542;48.360;10.958;2023-05-10T09:22:47;4.53;;;1.20;;
56667;SDS011;42542;48.360;10.958;2023-05-10T09:26:01;4.40;;;1.10;;
56667;SDS011;42542;48.360;10.958;2023-05-10T09:29:05;4.70;;;1.25;;
56667;SDS011;42542;48.360;10.958;2023-05-10T09:32:11;4.90;;;1.30;;
56667;SDS011;42542;48.360;10.958;2023-05-10T09:35:15;6.88;;;1.40;;
56667;SDS011;42542;48.360;10.958;2023-05-10T09:38:19;3.77;;;1.13;;
56667;SDS011;42542;48.360;10.958;2023-05-10T09:41:21;4.40;;;1.35;;
56667;SDS011;42542;48.360;10.958;2023-05-10T09:44:25;5.20;;;1.40;;
56667;SDS011;42542;48.360;10.958;2023-05-10T09:47:27;4.20;;;1.40;;
56667;SDS011;42542;48.360;10.958;2023-05-10T09:50:29;4.57;;;1.20;;
56667;SDS011;42542;48.360;10.958;2023-05-10T09:53:31;4.63;;;1.30;;
56667;SDS011;42542;48.360;10.958;2023-05-10T09:56:34;3.90;;;1.20;;
56667;SDS011;42542;48.360;10.958;2023-05-10T09:59:38;3.70;;;0.98;;
56667;SDS011;42542;48.360;10.958;2023-05-10T10:02:46;4.15;;;1.25;;
56667;SDS011;42542;48.360;10.958;2023-05-10T10:05:49;4.43;;;1.10;;
56667;SDS011;42542;48.360;10.958;2023-05-10T10:08:51;3.85;;;1.20;;
56667;SDS011;42542;48.360;10.958;2023-05-10T10:11:57;6.22;;;1.45;;
56667;SDS011;42542;48.360;10.958;2023-05-10T10:15:01;5.35;;;1.70;;
56667;SDS011;42542;48.360;10.958;2023-05-10T10:18:03;4.97;;;1.75;;
56667;SDS011;42542;48.360;10.958;2023-05-10T10:21:07;5.30;;;2.20;;
56667;SDS011;42542;48.360;10.958;2023-05-10T10:24:11;5.25;;;1.80;;
56667;SDS011;42542;48.360;10.958;2023-05-10T10:37:05;4.45;;;1.20;;
56667;SDS011;42542;48.360;10.958;2023-05-10T10:40:24;4.00;;;1.13;;
56667;SDS011;42542;48.360;10.958;2023-05-10T10:43:34;4.63;;;1.30;;
56667;SDS011;42542;48.360;10.958;2023-05-10T10:46:58;6.07;;;1.70;;
56667;SDS011;42542;48.360;10.958;2023-05-10T10:50:04;5.15;;;1.40;;
56667;SDS011;42542;48.360;10.958;2023-05-10T10:53:10;6.78;;;1.70;;
56667;SDS011;42542;48.360;10.958;2023-05-10T10:56:13;5.20;;;1.70;;
56667;SDS011;42542;48.360;10.958;2023-05-10T10:59:26;6.47;;;2.17;;
56667;SDS011;42542;48.360;10.958;2023-05-10T11:05:41;4.40;;;1.35;;
56667;SDS011;42542;48.360;10.958;2023-05-10T11:08:44;4.75;;;1.38;;
56667;SDS011;42542;48.360;10.958;2023-05-10T11:11:53;5.43;;;1.50;;
56667;SDS011;42542;48.360;10.958;2023-05-10T11:15:00;3.92;;;1.27;;
56667;SDS011;42542;48.360;10.958;2023-05-10T11:18:17;4.00;;;1.27;;
56667;SDS011;42542;48.360;10.958;2023-05-10T11:21:20;3.77;;;1.13;;
56667;SDS011;42542;48.360;10.958;2023-05-10T11:24:23;4.50;;;1.15;;
56667;SDS011;42542;48.360;10.958;2023-05-10T11:27:29;4.85;;;1.30;;
56667;SDS011;42542;48.360;10.958;2023-05-10T11:30:31;4.00;;;1.30;;
56667;SDS011;42542;48.360;10.958;2023-05-10T11:33:46;4.47;;;1.40;;
56667;SDS011;42542;48.360;10.958;2023-05-10T11:36:51;5.40;;;1.45;;
56667;SDS011;42542;48.360;10.958;2023-05-10T11:39:55;4.78;;;1.40;;
56667;SDS011;42542;48.360;10.958;2023-05-10T11:42:57;6.63;;;1.60;;
56667;SDS011;42542;48.360;10.958;2023-05-10T11:45:59;5.53;;;1.60;;
56667;SDS011;42542;48.360;10.958;2023-05-10T11:49:02;7.05;;;1.70;;
56667;SDS011;42542;48.360;10.958;2023-05-10T11:52:06;4.32;;;1.50;;
56667;SDS011;42542;48.360;10.958;2023-05-10T11:55:10;5.70;;;1.30;;
56667;SDS011;42542;48.360;10.958;2023-05-10T11:58:11;3.97;;;1.20;;
56667;SDS011;42542;48.360;10.958;2023-05-10T12:01:14;3.83;;;1.00;;
56667;SDS011;42542;48.360;10.958;2023-05-10T12:04:15;4.20;;;1.10;;
56667;SDS011;42542;48.360;10.958;2023-05-10T12:07:18;6.80;;;1.13;;
56667;SDS011;42542;48.360;10.958;2023-05-10T12:10:24;5.22;;;1.00;;
56667;SDS011;42542;48.360;10.958;2023-05-10T12:13:27;4.13;;;1.10;;
56667;SDS011;42542;48.360;10.958;2023-05-10T12:16:30;5.10;;;1.20;;
56667;SDS011;42542;48.360;10.958;2023-05-10T12:19:38;4.07;;;1.13;;
56667;SDS011;42542;48.360;10.958;2023-05-10T12:22:43;5.13;;;1.30;;
56667;SDS011;42542;48.360;10.958;2023-05-10T12:25:47;6.40;;;1.20;;
56667;SDS011;42542;48.360;10.958;2023-05-10T12:28:48;6.00;;;1.23;;
56667;SDS011;42542;48.360;10.958;2023-05-10T12:34:52;3.67;;;0.93;;
56667;SDS011;42542;48.360;10.958;2023-05-10T12:37:55;3.50;;;1.10;;
56667;SDS011;42542;48.360;10.958;2023-05-10T12:40:57;4.45;;;1.20;;
56667;SDS011;42542;48.360;10.958;2023-05-10T12:44:01;5.22;;;1.10;;
56667;SDS011;42542;48.360;10.958;2023-05-10T12:47:02;5.03;;;1.38;;
56667;SDS011;42542;48.360;10.958;2023-05-10T12:50:05;3.88;;;1.10;;
56667;SDS011;42542;48.360;10.958;2023-05-10T12:53:07;4.68;;;1.40;;
56667;SDS011;42542;48.360;10.958;2023-05-10T12:56:10;3.90;;;1.10;;
56667;SDS011;42542;48.360;10.958;2023-05-10T12:59:12;4.78;;;1.30;;
56667;SDS011;42542;48.360;10.958;2023-05-10T13:02:14;5.28;;;1.20;;
56667;SDS011;42542;48.360;10.958;2023-05-10T13:05:19;4.10;;;1.20;;
56667;SDS011;42542;48.360;10.958;2023-05-10T13:08:21;3.83;;;1.10;;
56667;SDS011;42542;48.360;10.958;2023-05-10T13:11:23;3.70;;;1.00;;
56667;SDS011;42542;48.360;10.958;2023-05-10T13:14:25;6.10;;;1.20;;
56667;SDS011;42542;48.360;10.958;2023-05-10T13:17:28;4.57;;;1.50;;
56667;SDS011;42542;48.360;10.958;2023-05-10T13:20:31;5.90;;;1.30;;
56667;SDS011;42542;48.360;10.958;2023-05-10T13:23:33;4.85;;;1.35;;
56667;SDS011;42542;48.360;10.958;2023-05-10T13:26:36;4.53;;;1.20;;
56667;SDS011;42542;48.360;10.958;2023-05-10T13:29:38;4.20;;;1.38;;
56667;SDS011;42542;48.360;10.958;2023-05-10T13:32:40;5.73;;;1.50;;
56667;SDS011;42542;48.360;10.958;2023-05-10T13:35:43;4.47;;;1.25;;
56667;SDS011;42542;48.360;10.958;2023-05-10T13:38:45;4.63;;;1.35;;
56667;SDS011;42542;48.360;10.958;2023-05-10T13:41:47;4.13;;;1.35;;
56667;SDS011;42542;48.360;10.958;2023-05-10T13:44:49;4.70;;;1.60;;
56667;SDS011;42542;48.360;10.958;2023-05-10T13:47:51;5.38;;;1.50;;
56667;SDS011;42542;48.360;10.958;2023-05-10T13:50:54;4.80;;;1.45;;
56667;SDS011;42542;48.360;10.958;2023-05-10T13:53:56;5.32;;;1.50;;
56667;SDS011;42542;48.360;10.958;2023-05-10T13:56:57;4.50;;;1.50;;
56667;SDS011;42542;48.360;10.958;2023-05-10T14:00:01;4.75;;;1.60;;
56667;SDS011;42542;48.360;10.958;2023-05-10T14:03:08;5.82;;;1.73;;
56667;SDS011;42542;48.360;10.958;2023-05-10T14:06:12;4.68;;;1.50;;
56667;SDS011;42542;48.360;10.958;2023-05-10T14:09:14;8.80;;;2.00;;
56667;SDS011;42542;48.360;10.958;2023-05-10T14:12:17;5.82;;;1.50;;
56667;SDS011;42542;48.360;10.958;2023-05-10T14:15:19;5.25;;;1.60;;
56667;SDS011;42542;48.360;10.958;2023-05-10T14:18:21;3.75;;;1.00;;
56667;SDS011;42542;48.360;10.958;2023-05-10T14:21:23;4.57;;;1.30;;
56667;SDS011;42542;48.360;10.958;2023-05-10T14:24:25;3.45;;;0.93;;
56667;SDS011;42542;48.360;10.958;2023-05-10T14:27:27;3.70;;;1.20;;
56667;SDS011;42542;48.360;10.958;2023-05-10T14:30:29;4.10;;;1.05;;
56667;SDS011;42542;48.360;10.958;2023-05-10T14:33:32;4.80;;;1.20;;
56667;SDS011;42542;48.360;10.958;2023-05-10T14:36:33;9.07;;;1.00;;
56667;SDS011;42542;48.360;10.958;2023-05-10T14:39:36;5.88;;;1.20;;
56667;SDS011;42542;48.360;10.958;2023-05-10T14:42:37;4.05;;;1.05;;
56667;SDS011;42542;48.360;10.958;2023-05-10T14:45:39;3.80;;;0.80;;
56667;SDS011;42542;48.360;10.958;2023-05-10T14:48:41;5.03;;;1.10;;
56667;SDS011;42542;48.360;10.958;2023-05-10T14:51:43;3.83;;;1.00;;
56667;SDS011;42542;48.360;10.958;2023-05-10T14:54:46;4.33;;;1.30;;
56667;SDS011;42542;48.360;10.958;2023-05-10T14:57:48;4.80;;;1.50;;
56667;SDS011;42542;48.360;10.958;2023-05-10T15:00:52;4.38;;;1.35;;
56667;SDS011;42542;48.360;10.958;2023-05-10T15:03:55;10.25;;;1.55;;
56667;SDS011;42542;48.360;10.958;2023-05-10T15:06:57;4.70;;;1.50;;
56667;SDS011;42542;48.360;10.958;2023-05-10T15:10:01;4.50;;;1.50;;
56667;SDS011;42542;48.360;10.958;2023-05-10T15:13:04;8.45;;;1.90;;
56667;SDS011;42542;48.360;10.958;2023-05-10T15:16:07;5.32;;;1.60;;
56667;SDS011;42542;48.360;10.958;2023-05-10T15:19:08;6.20;;;2.03;;
56667;SDS011;42542;48.360;10.958;2023-05-10T15:22:11;7.63;;;2.10;;
56667;SDS011;42542;48.360;10.958;2023-05-10T15:25:13;6.00;;;2.30;;
56667;SDS011;42542;48.360;10.958;2023-05-10T15:28:16;6.05;;;1.70;;
56667;SDS011;42542;48.360;10.958;2023-05-10T15:31:18;5.57;;;2.17;;
56667;SDS011;42542;48.360;10.958;2023-05-10T15:34:21;5.60;;;1.25;;
56667;SDS011;42542;48.360;10.958;2023-05-10T15:37:22;5.55;;;1.40;;
56667;SDS011;42542;48.360;10.958;2023-05-10T15:40:26;4.68;;;1.38;;
56667;SDS011;42542;48.360;10.958;2023-05-10T15:43:28;4.10;;;1.20;;
56667;SDS011;42542;48.360;10.958;2023-05-10T15:46:30;5.25;;;1.23;;
56667;SDS011;42542;48.360;10.958;2023-05-10T15:49:31;5.80;;;2.00;;
56667;SDS011;42542;48.360;10.958;2023-05-10T15:52:34;6.68;;;1.90;;
56667;SDS011;42542;48.360;10.958;2023-05-10T15:55:36;9.45;;;3.63;;
56667;SDS011;42542;48.360;10.958;2023-05-10T15:58:39;8.45;;;3.95;;
56667;SDS011;42542;48.360;10.958;2023-05-10T16:01:41;4.97;;;1.38;;
56667;SDS011;42542;48.360;10.958;2023-05-10T16:04:43;5.23;;;1.60;;
56667;SDS011;42542;48.360;10.958;2023-05-10T16:07:45;4.38;;;1.30;;
56667;SDS011;42542;48.360;10.958;2023-05-10T16:10:48;5.43;;;2.10;;
56667;SDS011;42542;48.360;10.958;2023-05-10T16:13:51;5.72;;;1.70;;
56667;SDS011;42542;48.360;10.958;2023-05-10T16:16:54;6.60;;;1.88;;
56667;SDS011;42542;48.360;10.958;2023-05-10T16:19:56;5.93;;;1.80;;
56667;SDS011;42542;48.360;10.958;2023-05-10T16:23:03;6.25;;;2.13;;
56667;SDS011;42542;48.360;10.958;2023-05-10T16:26:06;6.83;;;2.20;;
56667;SDS011;42542;48.360;10.958;2023-05-10T16:29:09;9.00;;;3.60;;
56667;SDS011;42542;48.360;10.958;2023-05-10T16:32:11;7.50;;;2.83;;
56667;SDS011;42542;48.360;10.958;2023-05-10T16:35:13;6.72;;;2.30;;
56667;SDS011;42542;48.360;10.958;2023-05-10T16:38:16;11.53;;;4.27;;
56667;SDS011;42542;48.360;10.958;2023-05-10T16:41:18;8.43;;;3.47;;
56667;SDS011;42542;48.360;10.958;2023-05-10T16:44:20;7.38;;;3.00;;
56667;SDS011;42542;48.360;10.958;2023-05-10T16:47:26;6.75;;;2.30;;
56667;SDS011;42542;48.360;10.958;2023-05-10T16:50:28;6.28;;;2.15;;
56667;SDS011;42542;48.360;10.958;2023-05-10T16:53:30;7.60;;;2.00;;
56667;SDS011;42542;48.360;10.958;2023-05-10T16:56:32;6.78;;;2.10;;
56667;SDS011;42542;48.360;10.958;2023-05-10T16:59:34;7.23;;;1.97;;
56667;SDS011;42542;48.360;10.958;2023-05-10T17:02:37;4.82;;;1.60;;
56667;SDS011;42542;48.360;10.958;2023-05-10T17:05:39;6.20;;;1.80;;
56667;SDS011;42542;48.360;10.958;2023-05-10T17:08:42;5.70;;;1.80;;
56667;SDS011;42542;48.360;10.958;2023-05-10T17:11:44;6.25;;;1.75;;
56667;SDS011;42542;48.360;10.958;2023-05-10T17:14:47;6.80;;;2.35;;
56667;SDS011;42542;48.360;10.958;2023-05-10T17:17:48;8.13;;;2.38;;
56667;SDS011;42542;48.360;10.958;2023-05-10T17:20:51;7.27;;;2.20;;
56667;SDS011;42542;48.360;10.958;2023-05-10T17:23:52;5.68;;;2.20;;
56667;SDS011;42542;48.360;10.958;2023-05-10T17:26:54;5.25;;;1.90;;
56667;SDS011;42542;48.360;10.958;2023-05-10T17:29:57;6.15;;;2.20;;
56667;SDS011;42542;48.360;10.958;2023-05-10T17:32:59;7.10;;;2.27;;
56667;SDS011;42542;48.360;10.958;2023-05-10T17:36:02;6.28;;;2.50;;
56667;SDS011;42542;48.360;10.958;2023-05-10T17:39:04;8.40;;;2.88;;
56667;SDS011;42542;48.360;10.958;2023-05-10T17:42:06;8.68;;;3.40;;
56667;SDS011;42542;48.360;10.958;2023-05-10T17:45:08;8.05;;;2.75;;
56667;SDS011;42542;48.360;10.958;2023-05-10T17:48:11;5.90;;;2.10;;
56667;SDS011;42542;48.360;10.958;2023-05-10T17:51:14;6.30;;;2.35;;
56667;SDS011;42542;48.360;10.958;2023-05-10T17:54:15;7.37;;;2.70;;
56667;SDS011;42542;48.360;10.958;2023-05-10T17:57:18;6.35;;;2.60;;
56667;SDS011;42542;48.360;10.958;2023-05-10T18:00:21;7.70;;;3.08;;
56667;SDS011;42542;48.360;10.958;2023-05-10T18:03:23;7.75;;;2.30;;
56667;SDS011;42542;48.360;10.958;2023-05-10T18:06:24;8.63;;;2.50;;
56667;SDS011;42542;48.360;10.958;2023-05-10T18:09:27;6.25;;;2.10;;
56667;SDS011;42542;48.360;10.958;2023-05-10T18:12:29;6.88;;;2.08;;
56667;SDS011;42542;48.360;10.958;2023-05-10T18:15:32;5.37;;;2.03;;
56667;SDS011;42542;48.360;10.958;2023-05-10T18:18:34;6.20;;;2.10;;
56667;SDS011;42542;48.360;10.958;2023-05-10T18:21:37;6.75;;;2.20;;
56667;SDS011;42542;48.360;10.958;2023-05-10T18:24:39;8.40;;;2.35;;
56667;SDS011;42542;48.360;10.958;2023-05-10T18:27:42;6.80;;;2.00;;
56667;SDS011;42542;48.360;10.958;2023-05-10T18:30:43;7.25;;;2.20;;